createdAt,value
2018-01-22T00:01:45.820Z,28.97
2018-01-22T00:04:14.052Z,39.17
2018-01-22T00:06:41.527Z,24.43
2018-01-22T00:09:08.998Z,20.23
2018-01-22T00:11:36.462Z,18.23
2018-01-22T00:14:03.926Z,15.73
2018-01-22T00:16:32.161Z,17.80
2018-01-22T00:18:59.614Z,12.33
2018-01-22T00:21:27.090Z,15.03
2018-01-22T00:23:54.558Z,10.90
2018-01-22T00:26:22.023Z,14.70
2018-01-22T00:28:49.504Z,15.67
2018-01-22T00:31:17.743Z,6.47
2018-01-22T00:33:45.215Z,6.33
2018-01-22T00:36:12.690Z,15.90
2018-01-22T00:38:40.918Z,4.10
2018-01-22T00:41:08.387Z,4.10
2018-01-22T00:43:35.833Z,3.00
2018-01-22T00:46:03.294Z,3.70
2018-01-22T00:48:31.528Z,3.50
2018-01-22T00:50:58.982Z,3.23
2018-01-22T00:53:26.481Z,4.03
2018-01-22T00:55:53.949Z,4.93
2018-01-22T00:58:21.461Z,7.40
2018-01-22T01:00:48.938Z,5.87
2018-01-22T01:03:16.422Z,12.30
2018-01-22T01:05:43.897Z,6.27
2018-01-22T01:08:11.386Z,7.80
2018-01-22T01:10:47.470Z,13.23
2018-01-22T01:13:14.953Z,5.97
2018-01-22T01:15:42.421Z,11.03
2018-01-22T01:18:11.401Z,6.97
2018-01-22T01:20:38.870Z,7.73
2018-01-22T01:23:06.336Z,8.50
2018-01-22T01:25:33.794Z,7.87
2018-01-22T01:28:01.266Z,4.97
2018-01-22T01:30:28.737Z,10.90
2018-01-22T01:32:56.965Z,5.40
2018-01-22T01:35:24.468Z,4.70
2018-01-22T01:37:52.305Z,5.27
2018-01-22T01:40:19.765Z,5.30
2018-01-22T01:42:47.231Z,5.17
2018-01-22T01:45:14.710Z,3.27
2018-01-22T01:47:43.800Z,5.73
2018-01-22T01:50:11.254Z,4.50
2018-01-22T01:52:38.721Z,4.70
2018-01-22T01:55:06.933Z,3.47
2018-01-22T01:57:34.408Z,2.30
2018-01-22T02:00:01.866Z,4.90
2018-01-22T02:02:29.340Z,2.60
2018-01-22T02:04:56.796Z,1.87
2018-01-22T02:07:24.255Z,2.10
2018-01-22T02:09:51.721Z,2.10
2018-01-22T02:12:19.202Z,1.60
2018-01-22T02:14:46.652Z,1.90
2018-01-22T02:17:14.118Z,1.83
2018-01-22T02:19:42.345Z,1.80
2018-01-22T02:22:09.892Z,1.90
2018-01-22T02:24:37.337Z,2.97
2018-01-22T02:27:04.833Z,6.23
2018-01-22T02:29:32.290Z,3.17
2018-01-22T02:31:59.734Z,1.40
2018-01-22T02:34:27.201Z,2.43
2018-01-22T02:36:54.658Z,3.83
2018-01-22T02:39:22.126Z,2.80
2018-01-22T02:41:49.573Z,2.00
2018-01-22T02:44:17.815Z,2.53
2018-01-22T02:46:46.031Z,2.60
2018-01-22T02:49:13.501Z,3.70
2018-01-22T02:51:40.962Z,3.07
2018-01-22T02:54:08.446Z,3.00
2018-01-22T02:56:35.903Z,2.40
2018-01-22T02:59:04.134Z,9.33
2018-01-22T03:01:31.593Z,3.83
2018-01-22T03:03:59.063Z,2.30
2018-01-22T03:06:26.530Z,3.90
2018-01-22T03:08:54.008Z,2.07
2018-01-22T03:11:21.522Z,1.67
2018-01-22T03:13:48.977Z,2.00
2018-01-22T03:16:16.442Z,1.70
2018-01-22T03:18:43.926Z,1.60
2018-01-22T03:21:11.387Z,1.70
2018-01-22T03:23:38.857Z,2.20
2018-01-22T03:26:06.324Z,2.00
2018-01-22T03:28:34.591Z,1.80
2018-01-22T03:31:02.110Z,1.70
2018-01-22T03:33:29.569Z,2.23
2018-01-22T03:35:57.053Z,1.73
2018-01-22T03:38:24.506Z,1.77
2018-01-22T03:40:51.992Z,4.50
2018-01-22T03:43:20.212Z,1.37
2018-01-22T03:45:47.664Z,1.47
2018-01-22T03:48:15.129Z,3.00
2018-01-22T03:50:42.586Z,2.20
2018-01-22T03:53:10.067Z,1.73
2018-01-22T03:55:37.512Z,1.60
2018-01-22T03:58:04.978Z,1.53
2018-01-22T04:00:32.425Z,1.30
2018-01-22T04:02:59.886Z,1.70
2018-01-22T04:05:27.350Z,1.90
2018-01-22T04:07:54.814Z,1.70
2018-01-22T04:10:22.262Z,1.90
2018-01-22T04:12:50.529Z,1.50
2018-01-22T04:15:18.003Z,2.23
2018-01-22T04:17:45.858Z,1.70
2018-01-22T04:20:13.314Z,1.83
2018-01-22T04:22:40.781Z,2.10
2018-01-22T04:25:08.269Z,2.20
2018-01-22T04:27:35.745Z,1.80
2018-01-22T04:30:03.995Z,2.90
2018-01-22T04:32:31.457Z,2.10
2018-01-22T04:34:58.968Z,1.80
2018-01-22T04:37:26.420Z,1.93
2018-01-22T04:39:53.879Z,2.30
2018-01-22T04:42:21.345Z,1.80
2018-01-22T04:44:48.848Z,3.33
2018-01-22T04:47:16.318Z,2.20
2018-01-22T04:49:43.785Z,3.00
2018-01-22T04:52:11.260Z,2.60
2018-01-22T04:54:39.485Z,2.90
2018-01-22T04:57:06.949Z,2.73
2018-01-22T04:59:34.400Z,3.00
2018-01-22T05:02:01.867Z,3.77
2018-01-22T05:04:29.335Z,3.67
2018-01-22T05:06:56.793Z,3.10
2018-01-22T05:09:24.261Z,4.23
2018-01-22T05:11:51.724Z,4.47
2018-01-22T05:14:19.177Z,5.30
2018-01-22T05:16:46.654Z,5.03
2018-01-22T05:19:15.043Z,5.40
2018-01-22T05:21:43.734Z,4.60
2018-01-22T05:24:11.359Z,5.50
2018-01-22T05:26:38.824Z,8.30
2018-01-22T05:29:07.071Z,6.90
2018-01-22T05:31:34.535Z,9.40
2018-01-22T05:34:02.005Z,8.07
2018-01-22T05:36:29.466Z,7.70
2018-01-22T05:38:56.927Z,9.60
2018-01-22T05:41:24.379Z,11.03
2018-01-22T05:43:51.842Z,16.87
2018-01-22T05:46:19.293Z,16.20
2018-01-22T05:48:46.797Z,16.77
2018-01-22T05:51:14.303Z,15.77
2018-01-22T05:53:41.778Z,21.50
2018-01-22T05:56:09.262Z,25.20
2018-01-22T05:58:36.913Z,37.73
2018-01-22T06:01:05.166Z,31.57
2018-01-22T06:03:32.657Z,23.60
2018-01-22T06:06:00.907Z,28.40
2018-01-22T06:08:28.382Z,33.63
2018-01-22T06:10:56.638Z,28.90
2018-01-22T06:13:24.104Z,37.73
2018-01-22T06:15:51.575Z,45.20
2018-01-22T06:18:19.799Z,46.87
2018-01-22T06:20:47.311Z,49.07
2018-01-22T06:23:15.536Z,58.00
2018-01-22T06:25:43.046Z,46.37
2018-01-22T06:28:11.279Z,54.27
2018-01-22T06:30:38.807Z,54.07
2018-01-22T06:33:06.240Z,58.53
2018-01-22T06:35:34.478Z,55.47
2018-01-22T06:38:01.956Z,50.97
2018-01-22T06:40:29.423Z,61.67
2018-01-22T06:42:56.912Z,60.33
2018-01-22T06:45:24.379Z,63.70
2018-01-22T06:47:52.306Z,65.57
2018-01-22T06:50:19.774Z,51.87
2018-01-22T06:52:48.019Z,61.03
2018-01-22T06:55:15.501Z,63.67
2018-01-22T06:57:43.259Z,76.27
2018-01-22T07:00:10.769Z,74.13
2018-01-22T07:02:38.226Z,66.83
2018-01-22T07:05:05.732Z,89.27
2018-01-22T07:07:33.218Z,68.00
2018-01-22T07:10:01.463Z,84.73
2018-01-22T07:12:28.923Z,82.33
2018-01-22T07:14:56.393Z,70.90
2018-01-22T07:17:23.868Z,81.97
2018-01-22T07:19:52.164Z,71.20
2018-01-22T07:22:19.615Z,82.40
2018-01-22T07:24:47.858Z,67.37
2018-01-22T07:27:15.333Z,74.70
2018-01-22T07:29:43.583Z,61.63
2018-01-22T07:32:11.070Z,72.83
2018-01-22T07:34:39.847Z,72.20
2018-01-22T07:37:07.305Z,77.27
2018-01-22T07:39:35.565Z,57.43
2018-01-22T07:42:03.066Z,63.73
2018-01-22T07:44:30.535Z,77.13
2018-01-22T07:46:58.059Z,78.13
2018-01-22T07:49:25.508Z,70.13
2018-01-22T07:51:53.761Z,69.13
2018-01-22T07:54:21.231Z,82.80
2018-01-22T07:56:48.715Z,74.17
2018-01-22T07:59:16.177Z,95.03
2018-01-22T08:01:44.424Z,75.70
2018-01-22T08:04:11.919Z,84.33
2018-01-22T08:06:40.187Z,89.60
2018-01-22T08:09:07.651Z,81.07
2018-01-22T08:11:35.922Z,72.83
2018-01-22T08:14:04.153Z,71.80
2018-01-22T08:16:31.932Z,71.43
2018-01-22T08:18:59.406Z,68.03
2018-01-22T08:21:26.926Z,78.13
2018-01-22T08:23:54.393Z,74.07
2018-01-22T08:26:21.891Z,80.73
2018-01-22T08:28:49.416Z,65.00
2018-01-22T08:31:16.890Z,78.47
2018-01-22T08:33:44.364Z,56.33
2018-01-22T08:36:11.818Z,62.60
2018-01-22T08:38:39.278Z,74.97
2018-01-22T08:41:06.742Z,61.50
2018-01-22T08:43:34.201Z,52.03
2018-01-22T08:46:02.426Z,61.70
2018-01-22T08:48:29.910Z,58.00
2018-01-22T08:50:57.374Z,59.73
2018-01-22T08:53:24.865Z,49.10
2018-01-22T08:55:53.101Z,60.07
2018-01-22T08:58:20.586Z,66.53
2018-01-22T09:00:48.050Z,53.93
2018-01-22T09:03:15.521Z,48.47
2018-01-22T09:05:43.771Z,62.33
2018-01-22T09:08:11.246Z,52.40
2018-01-22T09:10:38.730Z,50.30
2018-01-22T09:13:06.188Z,43.60
2018-01-22T09:15:33.683Z,47.77
2018-01-22T09:18:01.174Z,54.83
2018-01-22T09:20:28.641Z,39.23
2018-01-22T09:22:56.863Z,41.73
2018-01-22T09:25:24.339Z,42.53
2018-01-22T09:27:51.808Z,41.83
2018-01-22T09:30:19.281Z,44.47
2018-01-22T09:32:46.760Z,43.53
2018-01-22T09:35:14.985Z,49.20
2018-01-22T09:37:42.450Z,48.10
2018-01-22T09:40:09.978Z,49.30
2018-01-22T09:42:37.442Z,38.73
2018-01-22T09:45:04.910Z,40.60
2018-01-22T09:47:32.396Z,42.20
2018-01-22T09:49:59.876Z,44.67
2018-01-22T09:52:27.358Z,41.07
2018-01-22T09:54:55.585Z,28.53
2018-01-22T09:57:23.056Z,47.07
2018-01-22T09:59:50.514Z,37.63
2018-01-22T10:02:18.001Z,31.80
2018-01-22T10:04:46.249Z,32.67
2018-01-22T10:07:13.718Z,25.93
2018-01-22T10:09:41.179Z,34.03
2018-01-22T10:12:09.446Z,28.83
2018-01-22T10:14:36.905Z,48.63
2018-01-22T10:17:04.369Z,22.37
2018-01-22T10:19:31.844Z,34.23
2018-01-22T10:22:00.097Z,28.27
2018-01-22T10:24:27.579Z,32.03
2018-01-22T10:26:55.818Z,29.70
2018-01-22T10:29:23.281Z,28.63
2018-01-22T10:31:50.764Z,26.70
2018-01-22T10:34:18.996Z,21.63
2018-01-22T10:36:46.470Z,24.57
2018-01-22T10:39:13.940Z,27.97
2018-01-22T10:41:42.192Z,28.60
2018-01-22T10:44:09.667Z,28.43
2018-01-22T10:46:37.213Z,33.10
2018-01-22T10:49:04.714Z,25.53
2018-01-22T10:51:34.999Z,26.57
2018-01-22T10:54:02.471Z,25.57
2018-01-22T10:56:30.133Z,24.33
2018-01-22T10:58:58.389Z,19.83
2018-01-22T11:01:26.047Z,16.83
2018-01-22T11:03:53.522Z,21.60
2018-01-22T11:06:21.497Z,34.33
2018-01-22T11:08:49.857Z,28.13
2018-01-22T11:11:17.351Z,30.80
2018-01-22T11:13:44.818Z,26.17
2018-01-22T11:16:13.112Z,25.00
2018-01-22T11:18:41.408Z,22.70
2018-01-22T11:21:09.025Z,18.43
2018-01-22T11:23:36.779Z,23.03
2018-01-22T11:26:04.243Z,27.10
2018-01-22T11:28:31.723Z,31.03
2018-01-22T11:31:00.048Z,23.30
2018-01-22T11:33:28.815Z,21.53
2018-01-22T11:35:56.303Z,25.43
2018-01-22T11:38:23.829Z,19.30
2018-01-22T11:40:52.314Z,17.50
2018-01-22T11:43:19.784Z,21.80
2018-01-22T11:45:47.255Z,19.10
2018-01-22T11:48:14.841Z,31.83
2018-01-22T11:50:42.318Z,21.43
2018-01-22T11:53:10.041Z,20.53
2018-01-22T11:55:37.687Z,19.13
2018-01-22T11:58:05.158Z,25.27
2018-01-22T12:00:34.678Z,18.87
2018-01-22T12:03:02.246Z,17.63
2018-01-22T12:05:30.155Z,26.67
2018-01-22T12:07:58.595Z,23.63
2018-01-22T12:10:26.206Z,18.30
2018-01-22T12:12:53.817Z,21.47
2018-01-22T12:15:21.352Z,23.00
2018-01-22T12:17:48.908Z,26.03
2018-01-22T12:20:16.487Z,25.20
2018-01-22T12:22:44.053Z,28.73
2018-01-22T12:25:11.920Z,30.00
2018-01-22T12:27:39.422Z,22.47
2018-01-22T12:30:07.742Z,21.00
2018-01-22T12:32:35.210Z,19.73
2018-01-22T12:35:02.697Z,16.13
2018-01-22T12:37:30.927Z,22.53
2018-01-22T12:39:58.421Z,21.77
2018-01-22T12:42:26.555Z,22.60
2018-01-22T12:44:54.060Z,15.30
2018-01-22T12:47:21.792Z,22.80
2018-01-22T12:49:49.669Z,18.60
2018-01-22T12:52:17.442Z,19.73
2018-01-22T12:54:44.906Z,17.30
2018-01-22T12:57:12.689Z,13.43
2018-01-22T12:59:40.145Z,24.17
2018-01-22T13:02:07.620Z,19.00
2018-01-22T13:04:35.078Z,27.93
2018-01-22T13:07:03.324Z,19.63
2018-01-22T13:09:30.777Z,21.30
2018-01-22T13:11:58.258Z,19.70
2018-01-22T13:14:25.733Z,20.13
2018-01-22T13:16:53.255Z,37.03
2018-01-22T13:19:20.711Z,14.33
2018-01-22T13:21:48.164Z,13.10
2018-01-22T13:24:15.653Z,30.17
2018-01-22T13:26:43.108Z,16.97
2018-01-22T13:29:11.376Z,15.63
2018-01-22T13:31:38.853Z,10.33
2018-01-22T13:34:06.325Z,19.73
2018-01-22T13:36:34.549Z,19.67
2018-01-22T13:39:02.027Z,11.13
2018-01-22T13:41:29.601Z,13.87
2018-01-22T13:43:57.112Z,21.17
2018-01-22T13:46:24.606Z,7.70
2018-01-22T13:48:52.079Z,11.10
2018-01-22T13:51:19.582Z,18.87
2018-01-22T13:53:47.064Z,11.23
2018-01-22T13:56:14.522Z,20.47
2018-01-22T13:58:42.004Z,15.20
2018-01-22T14:01:09.645Z,19.70
2018-01-22T14:03:37.101Z,13.87
2018-01-22T14:06:05.090Z,14.33
2018-01-22T14:08:32.547Z,8.73
2018-01-22T14:11:00.048Z,11.33
2018-01-22T14:13:28.330Z,17.50
2018-01-22T14:15:56.703Z,8.30
2018-01-22T14:18:24.202Z,5.37
2018-01-22T14:20:51.735Z,5.30
2018-01-22T14:23:19.196Z,10.80
2018-01-22T14:25:46.674Z,12.90
2018-01-22T14:28:14.586Z,6.80
2018-01-22T14:30:42.234Z,14.43
2018-01-22T14:33:09.665Z,15.17
2018-01-22T14:35:37.134Z,17.70
2018-01-22T14:38:04.966Z,13.90
2018-01-22T14:40:32.462Z,14.67
2018-01-22T14:42:59.927Z,10.23
2018-01-22T14:45:27.417Z,19.93
2018-01-22T14:47:54.898Z,12.97
2018-01-22T14:50:23.243Z,19.30
2018-01-22T14:52:50.734Z,23.10
2018-01-22T14:55:18.240Z,11.30
2018-01-22T14:57:45.750Z,27.43
2018-01-22T15:00:14.063Z,15.50
2018-01-22T15:02:41.537Z,16.93
2018-01-22T15:05:09.066Z,11.90
2018-01-22T15:07:36.525Z,26.83
2018-01-22T15:10:04.009Z,12.03
2018-01-22T15:12:31.506Z,17.00
2018-01-22T15:14:59.965Z,18.43
2018-01-22T15:17:27.463Z,15.90
2018-01-22T15:19:55.122Z,10.93
2018-01-22T15:22:23.822Z,16.63
2018-01-22T15:24:51.306Z,15.37
2018-01-22T15:27:18.771Z,17.93
2018-01-22T15:29:46.862Z,18.30
2018-01-22T15:32:15.118Z,13.73
2018-01-22T15:34:43.008Z,15.00
2018-01-22T15:37:10.819Z,17.23
2018-01-22T15:39:38.399Z,20.60
2018-01-22T15:42:07.688Z,16.00
2018-01-22T15:44:35.195Z,31.27
2018-01-22T15:47:02.688Z,14.97
2018-01-22T15:49:30.909Z,15.87
2018-01-22T15:51:58.458Z,22.07
2018-01-22T15:54:26.799Z,23.00
2018-01-22T15:56:55.045Z,27.70
2018-01-22T15:59:22.535Z,25.97
2018-01-22T16:01:50.800Z,18.90
2018-01-22T16:04:18.285Z,28.03
2018-01-22T16:06:46.534Z,27.30
2018-01-22T16:09:14.027Z,29.13
2018-01-22T16:11:41.501Z,33.93
2018-01-22T16:14:08.993Z,22.60
2018-01-22T16:16:39.392Z,29.70
2018-01-22T16:19:06.902Z,35.07
2018-01-22T16:21:35.128Z,26.93
2018-01-22T16:24:02.610Z,13.90
2018-01-22T16:26:30.083Z,24.27
2018-01-22T16:28:57.554Z,18.87
2018-01-22T16:31:25.026Z,19.53
2018-01-22T16:33:53.282Z,28.57
2018-01-22T16:36:20.738Z,14.60
2018-01-22T16:38:48.246Z,20.93
2018-01-22T16:41:15.711Z,17.77
2018-01-22T16:43:43.186Z,27.50
2018-01-22T16:46:10.642Z,33.27
2018-01-22T16:48:38.106Z,21.67
2018-01-22T16:51:05.594Z,27.43
2018-01-22T16:53:33.086Z,18.33
2018-01-22T16:56:00.548Z,20.73
2018-01-22T16:58:28.007Z,17.93
2018-01-22T17:00:55.485Z,26.63
2018-01-22T17:03:22.946Z,28.80
2018-01-22T17:05:50.447Z,33.47
2018-01-22T17:08:17.951Z,22.07
2018-01-22T17:10:45.434Z,24.93
2018-01-22T17:13:13.537Z,19.00
2018-01-22T17:15:41.076Z,14.87
2018-01-22T17:18:11.100Z,15.87
2018-01-22T17:20:39.176Z,16.63
2018-01-22T17:23:06.634Z,12.60
2018-01-22T17:25:35.088Z,23.30
2018-01-22T17:28:03.390Z,32.03
2018-01-22T17:30:30.879Z,20.70
2018-01-22T17:32:59.838Z,20.13
2018-01-22T17:35:27.309Z,27.87
2018-01-22T17:37:56.003Z,26.63
2018-01-22T17:40:23.474Z,38.80
2018-01-22T17:42:51.908Z,25.27
2018-01-22T17:45:19.873Z,24.03
2018-01-22T17:47:48.382Z,23.67
2018-01-22T17:50:15.946Z,24.87
2018-01-22T17:52:43.444Z,19.13
2018-01-22T17:55:10.941Z,17.40
2018-01-22T17:57:38.513Z,23.23
2018-01-22T18:00:06.183Z,33.53
2018-01-22T18:02:33.944Z,24.33
2018-01-22T18:05:01.558Z,18.10
2018-01-22T18:07:29.792Z,12.43
2018-01-22T18:09:57.416Z,17.73
2018-01-22T18:12:25.017Z,30.53
2018-01-22T18:14:52.679Z,25.67
2018-01-22T18:17:20.184Z,11.17
2018-01-22T18:19:47.855Z,28.20
2018-01-22T18:22:15.412Z,12.67
2018-01-22T18:24:42.941Z,31.20
2018-01-22T18:27:11.179Z,18.50
2018-01-22T18:29:38.683Z,18.40
2018-01-22T18:32:06.931Z,22.37
2018-01-22T18:34:34.389Z,21.73
2018-01-22T18:37:01.979Z,37.73
2018-01-22T18:39:30.230Z,12.30
2018-01-22T18:41:57.701Z,35.70
2018-01-22T18:44:25.158Z,20.10
2018-01-22T18:46:52.638Z,16.00
2018-01-22T18:49:20.102Z,19.53
2018-01-22T18:51:47.611Z,17.70
2018-01-22T18:54:15.082Z,18.50
2018-01-22T18:56:42.547Z,30.83
2018-01-22T18:59:10.078Z,22.50
2018-01-22T19:01:37.555Z,27.00
2018-01-22T19:04:05.116Z,17.80
2018-01-22T19:06:32.660Z,23.80
2018-01-22T19:09:00.153Z,28.40
2018-01-22T19:11:28.410Z,17.90
2018-01-22T19:13:55.879Z,31.80
2018-01-22T19:16:23.353Z,25.53
2018-01-22T19:18:51.586Z,28.43
2018-01-22T19:21:19.329Z,21.23
2018-01-22T19:23:47.984Z,25.67
2018-01-22T19:26:16.764Z,19.43
2018-01-22T19:28:45.007Z,37.63
2018-01-22T19:31:12.574Z,30.30
2018-01-22T19:33:40.053Z,28.87
2018-01-22T19:36:07.832Z,20.73
2018-01-22T19:38:35.386Z,27.53
2018-01-22T19:41:03.622Z,27.70
2018-01-22T19:43:31.687Z,23.63
2018-01-22T19:45:59.233Z,22.93
2018-01-22T19:48:26.824Z,24.33
2018-01-22T19:50:54.321Z,35.93
2018-01-22T19:53:22.550Z,26.73
2018-01-22T19:55:50.036Z,29.47
2018-01-22T19:58:17.512Z,34.17
2018-01-22T20:00:45.095Z,28.47
2018-01-22T20:03:12.775Z,30.33
2018-01-22T20:05:40.593Z,12.23
2018-01-22T20:08:08.207Z,30.70
2018-01-22T20:10:35.683Z,27.87
2018-01-22T20:13:03.328Z,28.13
2018-01-22T20:15:31.740Z,40.30
2018-01-22T20:17:59.215Z,31.03
2018-01-22T20:20:27.741Z,17.60
2018-01-22T20:22:55.321Z,21.73
2018-01-22T20:25:22.940Z,18.57
2018-01-22T20:27:51.495Z,20.20
2018-01-22T20:30:18.968Z,23.13
2018-01-22T20:32:47.407Z,15.73
2018-01-22T20:35:16.313Z,23.27
2018-01-22T20:37:44.221Z,24.47
2018-01-22T20:40:12.474Z,23.27
2018-01-22T20:42:40.113Z,22.27
2018-01-22T20:45:07.751Z,28.30
2018-01-22T20:47:35.237Z,25.60
2018-01-22T20:50:02.704Z,21.93
2018-01-22T20:52:30.184Z,29.83
2018-01-22T20:54:58.429Z,23.63
2018-01-22T20:57:25.909Z,29.83
2018-01-22T20:59:53.366Z,30.70
2018-01-22T21:02:20.851Z,34.47
2018-01-22T21:04:49.114Z,40.67
2018-01-22T21:07:16.659Z,29.77
2018-01-22T21:09:44.141Z,31.87
2018-01-22T21:12:12.391Z,33.73
2018-01-22T21:14:39.870Z,37.23
2018-01-22T21:17:07.362Z,30.70
2018-01-22T21:19:34.834Z,34.43
2018-01-22T21:22:02.303Z,25.80
2018-01-22T21:24:29.774Z,34.37
2018-01-22T21:26:57.275Z,33.33
2018-01-22T21:29:25.522Z,36.23
2018-01-22T21:31:52.989Z,43.80
2018-01-22T21:34:20.479Z,22.80
2018-01-22T21:36:47.976Z,27.03
2018-01-22T21:39:15.457Z,22.40
2018-01-22T21:41:42.931Z,26.90
2018-01-22T21:44:11.178Z,33.23
2018-01-22T21:46:38.648Z,41.87
2018-01-22T21:49:06.131Z,19.93
2018-01-22T21:51:34.359Z,23.33
2018-01-22T21:54:01.846Z,32.37
2018-01-22T21:56:29.370Z,33.73
2018-01-22T21:58:56.833Z,25.07
2018-01-22T22:01:25.083Z,34.13
2018-01-22T22:03:52.554Z,31.47
2018-01-22T22:06:20.023Z,33.40
2018-01-22T22:08:47.534Z,36.27
2018-01-22T22:11:15.760Z,33.63
2018-01-22T22:13:43.288Z,44.30
2018-01-22T22:16:10.750Z,34.13
2018-01-22T22:18:38.217Z,27.17
2018-01-22T22:21:05.686Z,25.63
2018-01-22T22:23:33.191Z,34.67
2018-01-22T22:26:00.666Z,30.73
2018-01-22T22:28:28.143Z,39.03
2018-01-22T22:30:55.602Z,23.97
2018-01-22T22:33:23.076Z,30.37
2018-01-22T22:35:50.532Z,24.70
2018-01-22T22:38:18.013Z,39.63
2018-01-22T22:40:45.502Z,42.73
2018-01-22T22:43:12.992Z,22.87
2018-01-22T22:45:40.570Z,23.43
2018-01-22T22:48:08.090Z,24.83
2018-01-22T22:50:36.325Z,28.60
2018-01-22T22:53:03.789Z,30.13
2018-01-22T22:55:31.261Z,27.43
2018-01-22T22:57:58.742Z,28.00
2018-01-22T23:00:27.014Z,36.40
2018-01-22T23:02:55.308Z,46.23
2018-01-22T23:05:22.816Z,28.73
2018-01-22T23:07:50.303Z,24.50
2018-01-22T23:10:17.784Z,28.47
2018-01-22T23:12:45.253Z,47.20
2018-01-22T23:15:12.744Z,30.50
2018-01-22T23:17:41.329Z,29.83
2018-01-22T23:20:08.821Z,44.83
2018-01-22T23:22:36.322Z,42.37
2018-01-22T23:25:03.786Z,39.57
2018-01-22T23:27:31.272Z,39.80
2018-01-22T23:29:58.730Z,29.50
2018-01-22T23:32:26.214Z,34.50
2018-01-22T23:34:53.674Z,33.17
2018-01-22T23:37:21.192Z,25.67
2018-01-22T23:39:48.653Z,35.63
2018-01-22T23:42:16.272Z,26.33
2018-01-22T23:44:44.490Z,31.83
2018-01-22T23:47:11.967Z,24.50
2018-01-22T23:49:39.437Z,30.67
2018-01-22T23:52:06.913Z,47.20
2018-01-22T23:54:35.141Z,31.80
2018-01-22T23:57:02.599Z,33.63
2018-01-22T23:59:30.130Z,35.57
